createdAt,value
2022-11-15T00:00:13.185Z,96913.91
2022-11-15T00:01:19.055Z,96913.06
2022-11-15T00:02:21.006Z,96912.25
2022-11-15T00:03:24.174Z,96909.47
2022-11-15T00:04:26.057Z,96910.88
2022-11-15T00:05:27.859Z,96914.91
2022-11-15T00:06:29.607Z,96918.50
2022-11-15T00:07:54.016Z,96911.69
2022-11-15T00:08:53.324Z,96911.50
2022-11-15T00:09:55.151Z,96904.72
2022-11-15T00:10:57.877Z,96908.91
2022-11-15T00:11:59.665Z,96908.91
2022-11-15T00:13:01.550Z,96910.09
2022-11-15T00:14:03.934Z,96906.88
2022-11-15T00:15:05.963Z,96907.66
2022-11-15T00:16:07.844Z,96912.25
2022-11-15T00:17:09.631Z,96910.06
2022-11-15T00:18:15.378Z,96910.59
2022-11-15T00:19:17.655Z,96913.41
2022-11-15T00:20:19.492Z,96919.41
2022-11-15T00:21:21.232Z,96914.03
2022-11-15T00:22:23.404Z,96912.41
2022-11-15T00:23:25.304Z,96916.00
2022-11-15T00:24:27.204Z,96913.41
2022-11-15T00:25:28.989Z,96907.19
2022-11-15T00:26:30.722Z,96915.00
2022-11-15T00:27:32.566Z,96917.59
2022-11-15T00:28:34.398Z,96914.56
2022-11-15T00:29:37.912Z,96908.34
2022-11-15T00:30:39.697Z,96915.94
2022-11-15T00:31:41.478Z,96910.75
2022-11-15T00:32:43.239Z,96903.94
2022-11-15T00:33:45.515Z,96908.34
2022-11-15T00:34:47.378Z,96901.53
2022-11-15T00:35:49.148Z,96902.31
2022-11-15T00:36:50.954Z,96905.75
2022-11-15T00:37:53.780Z,96909.94
2022-11-15T00:38:55.662Z,96901.94
2022-11-15T00:39:57.573Z,96900.66
2022-11-15T00:40:59.349Z,96901.84
2022-11-15T00:42:01.156Z,96896.66
2022-11-15T00:43:03.017Z,96896.84
2022-11-15T00:44:04.929Z,96897.84
2022-11-15T00:45:07.075Z,96897.84
2022-11-15T00:46:10.882Z,96892.63
2022-11-15T00:47:12.757Z,96893.44
2022-11-15T00:48:14.503Z,96892.63
2022-11-15T00:49:16.264Z,96892.63
2022-11-15T00:50:18.420Z,96892.22
2022-11-15T00:51:20.250Z,96896.59
2022-11-15T00:52:22.176Z,96891.13
2022-11-15T00:53:23.924Z,96894.72
2022-11-15T00:54:25.645Z,96899.94
2022-11-15T00:55:27.557Z,96897.50
2022-11-15T00:56:29.515Z,96899.66
2022-11-15T00:57:31.403Z,96890.47
2022-11-15T00:58:33.239Z,96894.44
2022-11-15T00:59:35.066Z,96887.81
2022-11-15T01:00:37.013Z,96890.41
2022-11-15T01:01:38.873Z,96884.38
2022-11-15T01:02:40.665Z,96889.19
2022-11-15T01:03:42.740Z,96888.75
2022-11-15T01:04:44.517Z,96888.31
2022-11-15T01:05:46.296Z,96893.50
2022-11-15T01:06:48.222Z,96892.31
2022-11-15T01:07:56.857Z,96903.31
2022-11-15T01:08:58.626Z,96893.56
2022-11-15T01:10:00.405Z,96890.78
2022-11-15T01:11:05.512Z,96896.78
2022-11-15T01:12:07.373Z,96898.38
2022-11-15T01:13:09.380Z,96894.38
2022-11-15T01:14:11.294Z,96890.16
2022-11-15T01:15:13.171Z,96887.56
2022-11-15T01:16:18.234Z,96894.38
2022-11-15T01:17:20.090Z,96891.16
2022-11-15T01:18:21.889Z,96895.75
2022-11-15T01:19:23.674Z,96894.91
2022-11-15T01:20:25.622Z,96891.91
2022-11-15T01:21:27.463Z,96896.66
2022-11-15T01:22:29.344Z,96900.63
2022-11-15T01:23:31.477Z,96893.63
2022-11-15T01:24:33.627Z,96894.63
2022-11-15T01:25:35.383Z,96894.63
2022-11-15T01:26:37.164Z,96894.63
2022-11-15T01:27:38.980Z,96899.63
2022-11-15T01:28:41.865Z,96890.06
2022-11-15T01:29:43.620Z,96892.03
2022-11-15T01:30:45.477Z,96896.63
2022-11-15T01:31:47.211Z,96885.22
2022-11-15T01:32:49.091Z,96887.81
2022-11-15T01:33:50.894Z,96890.59
2022-11-15T01:34:52.638Z,96881.19
2022-11-15T01:35:54.368Z,96896.63
2022-11-15T01:36:56.195Z,96895.00
2022-11-15T01:37:58.030Z,96902.16
2022-11-15T01:39:00.390Z,96896.16
2022-11-15T01:40:02.254Z,96900.91
2022-11-15T01:41:04.413Z,96896.53
2022-11-15T01:42:06.211Z,96895.72
2022-11-15T01:43:28.142Z,96885.34
2022-11-15T01:44:43.558Z,96890.25
2022-11-15T01:45:47.129Z,96886.06
2022-11-15T01:46:49.389Z,96879.09
2022-11-15T01:47:53.963Z,96878.09
2022-11-15T01:48:58.275Z,96882.47
2022-11-15T01:50:01.948Z,96871.09
2022-11-15T01:51:10.538Z,96877.94
2022-11-15T01:52:15.022Z,96867.72
2022-11-15T01:53:17.513Z,96872.91
2022-11-15T01:54:21.678Z,96880.63
2022-11-15T01:55:26.265Z,96873.66
2022-11-15T01:56:30.543Z,96871.22
2022-11-15T01:57:32.383Z,96866.84
2022-11-15T01:58:34.771Z,96867.63
2022-11-15T01:59:37.706Z,96866.34
2022-11-15T02:00:39.679Z,96869.09
2022-11-15T02:01:41.947Z,96867.13
2022-11-15T02:02:44.143Z,96865.53
2022-11-15T02:03:58.378Z,96866.50
2022-11-15T02:05:00.370Z,96866.34
2022-11-15T02:06:03.359Z,96865.53
2022-11-15T02:07:06.432Z,96869.94
2022-11-15T02:08:09.785Z,96864.75
2022-11-15T02:09:12.466Z,96865.34
2022-11-15T02:10:18.127Z,96861.13
2022-11-15T02:11:20.364Z,96858.38
2022-11-15T02:12:23.990Z,96857.97
2022-11-15T02:13:25.800Z,96862.19
2022-11-15T02:14:29.063Z,96856.00
2022-11-15T02:15:37.448Z,96857.63
2022-11-15T02:16:48.074Z,96849.84
2022-11-15T02:17:57.899Z,96854.41
2022-11-15T02:19:18.349Z,96861.75
2022-11-15T02:20:40.580Z,96850.56
2022-11-15T02:21:57.762Z,96847.97
2022-11-15T02:23:05.381Z,96850.94
2022-11-15T02:24:26.165Z,96855.88
2022-11-15T02:25:46.486Z,96854.25
2022-11-15T02:27:07.091Z,96854.09
2022-11-15T02:28:28.018Z,96857.88
2022-11-15T02:29:29.767Z,96852.66
2022-11-15T02:30:49.706Z,96851.88
2022-11-15T02:32:04.351Z,96847.47
2022-11-15T02:33:26.375Z,96849.06
2022-11-15T02:34:30.715Z,96841.09
2022-11-15T02:35:38.430Z,96839.50
2022-11-15T02:36:55.652Z,96841.28
2022-11-15T02:37:59.249Z,96830.09
2022-11-15T02:39:01.114Z,96837.25
2022-11-15T02:40:35.279Z,96839.06
2022-11-15T02:41:43.262Z,96842.47
2022-11-15T02:43:09.571Z,96833.06
2022-11-15T02:44:16.506Z,96835.22
2022-11-15T02:45:20.476Z,96834.63
2022-11-15T02:47:01.618Z,96838.00
2022-11-15T02:48:05.892Z,96830.41
2022-11-15T02:49:07.856Z,96833.59
2022-11-15T02:50:12.431Z,96836.22
2022-11-15T02:51:15.078Z,96832.03
2022-11-15T02:52:24.229Z,96828.59
2022-11-15T02:53:26.841Z,96835.59
2022-11-15T02:54:32.980Z,96835.59
2022-11-15T02:55:35.889Z,96835.75
2022-11-15T02:56:37.798Z,96831.41
2022-11-15T02:57:39.590Z,96831.13
2022-11-15T02:59:13.736Z,96828.91
2022-11-15T03:00:22.256Z,96830.28
2022-11-15T03:01:39.923Z,96831.25
2022-11-15T03:02:41.677Z,96829.66
2022-11-15T03:03:55.382Z,96831.63
2022-11-15T03:04:59.739Z,96826.44
2022-11-15T03:06:07.732Z,96824.63
2022-11-15T03:07:20.279Z,96830.00
2022-11-15T03:08:24.885Z,96821.59
2022-11-15T03:09:32.319Z,96820.78
2022-11-15T03:10:41.862Z,96821.97
2022-11-15T03:11:48.818Z,96823.13
2022-11-15T03:12:56.211Z,96822.31
2022-11-15T03:14:16.560Z,96822.69
2022-11-15T03:15:38.354Z,96826.28
2022-11-15T03:16:46.166Z,96813.91
2022-11-15T03:17:56.969Z,96814.88
2022-11-15T03:19:06.486Z,96807.09
2022-11-15T03:20:09.884Z,96815.09
2022-11-15T03:21:13.838Z,96811.50
2022-11-15T03:22:19.260Z,96811.50
2022-11-15T03:23:21.091Z,96810.63
2022-11-15T03:24:26.354Z,96811.38
2022-11-15T03:25:30.411Z,96815.09
2022-11-15T03:26:33.659Z,96808.78
2022-11-15T03:27:41.240Z,96811.16
2022-11-15T03:28:43.507Z,96805.19
2022-11-15T03:29:47.979Z,96814.75
2022-11-15T03:30:51.277Z,96803.38
2022-11-15T03:31:57.123Z,96812.16
2022-11-15T03:33:00.167Z,96809.75
2022-11-15T03:34:05.973Z,96819.31
2022-11-15T03:35:13.342Z,96810.75
2022-11-15T03:36:16.327Z,96802.97
2022-11-15T03:37:18.975Z,96805.28
2022-11-15T03:38:28.343Z,96806.06
2022-11-15T03:39:30.398Z,96802.50
2022-11-15T03:40:37.157Z,96806.91
2022-11-15T03:41:49.031Z,96799.91
2022-11-15T03:42:58.318Z,96801.50
2022-11-15T03:44:11.426Z,96804.09
2022-11-15T03:45:19.342Z,96807.31
2022-11-15T03:46:25.762Z,96807.88
2022-11-15T03:47:32.891Z,96804.22
2022-11-15T03:48:41.417Z,96796.44
2022-11-15T03:49:48.106Z,96797.94
2022-11-15T03:50:50.372Z,96792.34
2022-11-15T03:51:52.180Z,96796.34
2022-11-15T03:52:55.577Z,96795.19
2022-11-15T03:53:57.421Z,96801.38
2022-11-15T03:55:01.742Z,96799.56
2022-11-15T03:56:03.680Z,96794.38
2022-11-15T03:57:05.544Z,96797.59
2022-11-15T03:58:07.585Z,96791.00
2022-11-15T03:59:09.426Z,96792.97
2022-11-15T04:00:12.203Z,96791.16
2022-11-15T04:01:14.078Z,96788.56
2022-11-15T04:02:15.967Z,96792.97
2022-11-15T04:03:17.831Z,96795.91
2022-11-15T04:04:19.630Z,96789.75
2022-11-15T04:05:21.695Z,96786.94
2022-11-15T04:06:23.529Z,96784.72
2022-11-15T04:07:25.288Z,96779.38
2022-11-15T04:08:27.339Z,96789.91
2022-11-15T04:09:29.164Z,96777.94
2022-11-15T04:10:31.053Z,96779.91
2022-11-15T04:11:32.881Z,96780.28
2022-11-15T04:12:36.065Z,96778.66
2022-11-15T04:13:37.846Z,96777.06
2022-11-15T04:14:59.633Z,96780.63
2022-11-15T04:16:01.465Z,96773.84
2022-11-15T04:17:03.315Z,96781.78
2022-11-15T04:18:05.126Z,96770.63
2022-11-15T04:19:25.299Z,96772.41
2022-11-15T04:20:46.330Z,96780.53
2022-11-15T04:22:06.486Z,96771.16
2022-11-15T04:23:34.319Z,96770.00
2022-11-15T04:24:36.383Z,96774.38
2022-11-15T04:25:38.271Z,96770.00
2022-11-15T04:26:40.057Z,96766.41
2022-11-15T04:27:41.850Z,96764.63
2022-11-15T04:29:02.232Z,96766.22
2022-11-15T04:30:04.217Z,96761.84
2022-11-15T04:31:06.083Z,96759.06
2022-11-15T04:32:08.413Z,96761.03
2022-11-15T04:33:10.338Z,96762.84
2022-11-15T04:34:12.157Z,96761.22
2022-11-15T04:35:13.995Z,96761.22
2022-11-15T04:36:34.409Z,96755.41
2022-11-15T04:37:36.230Z,96759.47
2022-11-15T04:38:38.279Z,96760.25
2022-11-15T04:39:40.956Z,96753.44
2022-11-15T04:40:42.687Z,96753.44
2022-11-15T04:41:44.551Z,96756.41
2022-11-15T04:42:46.357Z,96759.19
2022-11-15T04:43:48.167Z,96757.38
2022-11-15T04:44:50.037Z,96757.22
2022-11-15T04:45:51.820Z,96756.25
2022-11-15T04:46:53.580Z,96753.44
2022-11-15T04:47:55.350Z,96750.69
2022-11-15T04:48:59.186Z,96754.28
2022-11-15T04:50:01.345Z,96750.84
2022-11-15T04:51:03.357Z,96750.06
2022-11-15T04:52:05.271Z,96746.84
2022-11-15T04:53:07.660Z,96737.47
2022-11-15T04:54:09.453Z,96741.66
2022-11-15T04:55:11.955Z,96741.47
2022-11-15T04:56:13.718Z,96741.31
2022-11-15T04:57:16.017Z,96739.50
2022-11-15T04:58:17.753Z,96731.72
2022-11-15T04:59:19.556Z,96736.91
2022-11-15T05:00:21.466Z,96731.09
2022-11-15T05:01:23.373Z,96734.66
2022-11-15T05:02:25.224Z,96731.09
2022-11-15T05:03:45.500Z,96731.09
2022-11-15T05:04:47.230Z,96730.09
2022-11-15T05:05:49.239Z,96729.94
2022-11-15T05:06:52.071Z,96730.72
2022-11-15T05:07:53.912Z,96729.94
2022-11-15T05:08:55.922Z,96734.94
2022-11-15T05:09:57.751Z,96735.13
2022-11-15T05:10:59.640Z,96728.34
2022-11-15T05:12:01.442Z,96723.16
2022-11-15T05:13:03.145Z,96721.34
2022-11-15T05:14:05.055Z,96722.78
2022-11-15T05:15:07.090Z,96717.97
2022-11-15T05:16:08.958Z,96713.75
2022-11-15T05:17:10.812Z,96717.34
2022-11-15T05:18:12.695Z,96719.94
2022-11-15T05:19:14.474Z,96713.13
2022-11-15T05:20:16.249Z,96718.16
2022-11-15T05:21:18.142Z,96721.53
2022-11-15T05:22:20.719Z,96723.94
2022-11-15T05:23:22.563Z,96724.50
2022-11-15T05:24:24.477Z,96725.47
2022-11-15T05:25:26.438Z,96721.91
2022-11-15T05:26:28.366Z,96722.72
2022-11-15T05:27:30.252Z,96723.88
2022-11-15T05:28:32.825Z,96716.09
2022-11-15T05:29:34.584Z,96722.88
2022-11-15T05:30:36.398Z,96718.16
2022-11-15T05:31:40.634Z,96717.53
2022-11-15T05:32:42.416Z,96717.06
2022-11-15T05:33:44.998Z,96725.47
2022-11-15T05:34:46.870Z,96719.31
2022-11-15T05:35:52.100Z,96725.22
2022-11-15T05:36:54.018Z,96719.44
2022-11-15T05:37:55.877Z,96721.81
2022-11-15T05:38:57.653Z,96713.06
2022-11-15T05:39:59.477Z,96722.25
2022-11-15T05:41:02.186Z,96721.28
2022-11-15T05:42:14.601Z,96718.25
2022-11-15T05:43:16.507Z,96717.97
2022-11-15T05:44:21.590Z,96722.38
2022-11-15T05:45:26.954Z,96724.16
2022-11-15T05:46:29.608Z,96723.34
2022-11-15T05:47:32.114Z,96723.16
2022-11-15T05:48:35.482Z,96723.16
2022-11-15T05:49:39.222Z,96722.97
2022-11-15T05:50:43.158Z,96722.03
2022-11-15T05:51:45.841Z,96726.38
2022-11-15T05:52:48.580Z,96721.19
2022-11-15T05:53:51.518Z,96717.81
2022-11-15T05:54:53.817Z,96724.59
2022-11-15T05:55:55.719Z,96719.78
2022-11-15T05:56:57.533Z,96717.97
2022-11-15T05:57:59.409Z,96724.34
2022-11-15T05:59:01.270Z,96721.75
2022-11-15T06:00:04.005Z,96713.97
2022-11-15T06:01:05.962Z,96712.97
2022-11-15T06:02:08.175Z,96711.03
2022-11-15T06:03:10.381Z,96714.03
2022-11-15T06:04:12.212Z,96705.13
2022-11-15T06:05:14.024Z,96708.50
2022-11-15T06:06:16.579Z,96705.91
2022-11-15T06:07:18.749Z,96708.94
2022-11-15T06:08:20.685Z,96706.34
2022-11-15T06:09:22.481Z,96704.75
2022-11-15T06:10:24.314Z,96707.50
2022-11-15T06:11:26.104Z,96715.03
2022-11-15T06:12:27.896Z,96704.56
2022-11-15T06:13:30.013Z,96701.44
2022-11-15T06:14:32.189Z,96703.25
2022-11-15T06:15:37.398Z,96707.00
2022-11-15T06:16:39.239Z,96705.38
2022-11-15T06:17:41.069Z,96709.59
2022-11-15T06:18:43.185Z,96705.66
2022-11-15T06:19:45.014Z,96705.66
2022-11-15T06:20:46.762Z,96702.06
2022-11-15T06:21:48.563Z,96705.13
2022-11-15T06:22:50.339Z,96699.13
2022-11-15T06:23:52.192Z,96700.09
2022-11-15T06:24:53.993Z,96703.94
2022-11-15T06:25:59.205Z,96700.72
2022-11-15T06:27:01.235Z,96697.00
2022-11-15T06:28:03.164Z,96701.97
2022-11-15T06:29:05.926Z,96696.63
2022-11-15T06:30:08.193Z,96699.13
2022-11-15T06:31:12.277Z,96695.91
2022-11-15T06:32:14.048Z,96697.91
2022-11-15T06:33:15.896Z,96701.09
2022-11-15T06:34:17.842Z,96697.34
2022-11-15T06:35:19.791Z,96695.91
2022-11-15T06:36:21.975Z,96699.84
2022-11-15T06:37:23.729Z,96694.22
2022-11-15T06:38:25.523Z,96692.88
2022-11-15T06:39:27.324Z,96692.72
2022-11-15T06:40:29.211Z,96692.25
2022-11-15T06:41:31.036Z,96701.22
2022-11-15T06:42:32.917Z,96692.97
2022-11-15T06:43:35.186Z,96699.06
2022-11-15T06:44:37.190Z,96707.09
2022-11-15T06:45:39.133Z,96697.38
2022-11-15T06:46:40.935Z,96705.47
2022-11-15T06:47:48.742Z,96706.19
2022-11-15T06:48:52.348Z,96701.03
2022-11-15T06:49:54.175Z,96692.16
2022-11-15T06:50:57.465Z,96698.97
2022-11-15T06:51:59.268Z,96702.03
2022-11-15T06:53:06.822Z,96700.06
2022-11-15T06:54:08.612Z,96699.06
2022-11-15T06:55:10.551Z,96696.13
2022-11-15T06:56:12.447Z,96700.94
2022-11-15T06:57:14.298Z,96698.34
2022-11-15T06:58:16.136Z,96699.59
2022-11-15T06:59:18.000Z,96694.50
2022-11-15T07:00:20.659Z,96698.53
2022-11-15T07:01:22.576Z,96694.94
2022-11-15T07:02:24.450Z,96693.78
2022-11-15T07:03:26.491Z,96691.38
2022-11-15T07:04:28.260Z,96686.00
2022-11-15T07:05:30.396Z,96683.25
2022-11-15T07:06:32.269Z,96686.00
2022-11-15T07:07:34.116Z,96688.41
2022-11-15T07:08:36.662Z,96685.66
2022-11-15T07:09:38.504Z,96691.28
2022-11-15T07:10:40.342Z,96686.44
2022-11-15T07:11:42.273Z,96692.34
2022-11-15T07:12:44.107Z,96687.72
2022-11-15T07:13:45.983Z,96687.09
2022-11-15T07:14:47.846Z,96692.34
2022-11-15T07:15:49.632Z,96692.63
2022-11-15T07:16:51.448Z,96688.88
2022-11-15T07:17:53.231Z,96691.09
2022-11-15T07:18:55.043Z,96694.69
2022-11-15T07:19:56.940Z,96685.09
2022-11-15T07:21:01.602Z,96685.72
2022-11-15T07:22:03.469Z,96686.97
2022-11-15T07:23:06.720Z,96683.84
2022-11-15T07:24:08.791Z,96693.06
2022-11-15T07:25:10.694Z,96691.44
2022-11-15T07:26:12.620Z,96690.28
2022-11-15T07:27:14.741Z,96694.31
2022-11-15T07:28:16.607Z,96691.88
2022-11-15T07:29:18.412Z,96689.13
2022-11-15T07:30:20.197Z,96676.94
2022-11-15T07:31:22.032Z,96695.72
2022-11-15T07:32:23.886Z,96687.75
2022-11-15T07:33:25.652Z,96691.53
2022-11-15T07:34:27.571Z,96684.00
2022-11-15T07:35:30.123Z,96673.28
2022-11-15T07:36:32.122Z,96681.22
2022-11-15T07:37:34.008Z,96684.00
2022-11-15T07:38:42.217Z,96680.44
2022-11-15T07:39:44.863Z,96674.25
2022-11-15T07:40:47.846Z,96672.03
2022-11-15T07:41:50.777Z,96675.25
2022-11-15T07:42:55.407Z,96679.44
2022-11-15T07:43:57.430Z,96674.25
2022-11-15T07:44:59.225Z,96672.44
2022-11-15T07:46:05.621Z,96671.66
2022-11-15T07:47:07.578Z,96666.47
2022-11-15T07:48:09.328Z,96665.28
2022-11-15T07:49:11.172Z,96664.16
2022-11-15T07:50:13.040Z,96662.59
2022-11-15T07:51:16.200Z,96662.84
2022-11-15T07:52:18.055Z,96661.06
2022-11-15T07:53:19.804Z,96655.31
2022-11-15T07:54:21.659Z,96653.53
2022-11-15T07:55:24.450Z,96666.31
2022-11-15T07:56:26.456Z,96670.69
2022-11-15T07:57:28.178Z,96669.09
2022-11-15T07:58:30.061Z,96666.69
2022-11-15T07:59:31.879Z,96658.72
2022-11-15T08:00:34.133Z,96661.94
2022-11-15T08:01:36.347Z,96667.47
2022-11-15T08:02:38.376Z,96659.88
2022-11-15T08:03:40.600Z,96660.31
2022-11-15T08:04:42.609Z,96652.81
2022-11-15T08:05:44.818Z,96654.66
2022-11-15T08:06:47.248Z,96652.28
2022-11-15T08:07:51.842Z,96660.69
2022-11-15T08:08:54.655Z,96650.94
2022-11-15T08:09:56.506Z,96648.41
2022-11-15T08:11:02.117Z,96658.22
2022-11-15T08:12:04.229Z,96651.50
2022-11-15T08:13:07.878Z,96639.56
2022-11-15T08:14:09.873Z,96643.75
2022-11-15T08:15:11.839Z,96643.41
2022-11-15T08:16:14.061Z,96642.03
2022-11-15T08:17:16.116Z,96646.22
2022-11-15T08:18:18.353Z,96639.28
2022-11-15T08:19:20.410Z,96639.69
2022-11-15T08:20:22.764Z,96638.53
2022-11-15T08:21:24.774Z,96637.78
2022-11-15T08:22:26.766Z,96631.03
2022-11-15T08:23:29.250Z,96640.84
2022-11-15T08:24:31.550Z,96637.84
2022-11-15T08:25:34.699Z,96623.88
2022-11-15T08:26:36.638Z,96630.31
2022-11-15T08:27:38.557Z,96623.72
2022-11-15T08:28:40.650Z,96620.38
2022-11-15T08:29:46.040Z,96627.19
2022-11-15T08:30:48.167Z,96617.59
2022-11-15T08:31:50.138Z,96622.81
2022-11-15T08:32:53.370Z,96621.25
2022-11-15T08:33:55.485Z,96620.03
2022-11-15T08:34:57.378Z,96623.50
2022-11-15T08:36:00.079Z,96629.91
2022-11-15T08:37:02.032Z,96620.13
2022-11-15T08:38:04.103Z,96620.53
2022-11-15T08:39:06.628Z,96619.16
2022-11-15T08:40:08.904Z,96614.56
2022-11-15T08:41:13.819Z,96613.66
2022-11-15T08:42:20.082Z,96616.84
2022-11-15T08:43:22.252Z,96614.06
2022-11-15T08:44:25.387Z,96615.09
2022-11-15T08:45:27.848Z,96611.72
2022-11-15T08:46:29.706Z,96617.94
2022-11-15T08:47:31.985Z,96605.13
2022-11-15T08:48:33.899Z,96615.56
2022-11-15T08:49:36.201Z,96607.94
2022-11-15T08:50:38.297Z,96601.94
2022-11-15T08:51:40.344Z,96597.94
2022-11-15T08:52:42.454Z,96604.34
2022-11-15T08:53:44.334Z,96597.56
2022-11-15T08:54:46.253Z,96600.16
2022-11-15T08:55:48.323Z,96602.97
2022-11-15T08:56:50.123Z,96598.75
2022-11-15T08:57:52.311Z,96598.16
2022-11-15T08:58:54.148Z,96598.13
2022-11-15T08:59:56.159Z,96593.75
2022-11-15T09:00:58.018Z,96597.13
2022-11-15T09:01:59.963Z,96598.31
2022-11-15T09:03:05.272Z,96596.31
2022-11-15T09:04:07.323Z,96603.13
2022-11-15T09:05:09.435Z,96600.13
2022-11-15T09:06:12.035Z,96605.75
2022-11-15T09:07:14.770Z,96599.13
2022-11-15T09:08:45.654Z,96600.69
2022-11-15T09:09:39.443Z,96596.66
2022-11-15T09:10:41.294Z,96600.91
2022-11-15T09:11:43.088Z,96592.66
2022-11-15T09:12:45.164Z,96598.25
2022-11-15T09:13:47.320Z,96594.81
2022-11-15T09:14:49.357Z,96591.19
2022-11-15T09:15:51.176Z,96587.75
2022-11-15T09:16:52.956Z,96584.69
2022-11-15T09:17:54.806Z,96585.69
2022-11-15T09:18:56.975Z,96584.09
2022-11-15T09:19:58.929Z,96581.28
2022-11-15T09:21:01.197Z,96582.84
2022-11-15T09:22:03.121Z,96579.00
2022-11-15T09:23:05.912Z,96578.75
2022-11-15T09:24:07.831Z,96576.72
2022-11-15T09:25:11.228Z,96579.13
2022-11-15T09:26:14.134Z,96576.91
2022-11-15T09:27:16.135Z,96571.25
2022-11-15T09:28:18.104Z,96575.63
2022-11-15T09:29:20.157Z,96575.59
2022-11-15T09:30:22.209Z,96577.56
2022-11-15T09:31:24.320Z,96572.31
2022-11-15T09:32:32.210Z,96573.66
2022-11-15T09:33:36.948Z,96576.22
2022-11-15T09:34:39.122Z,96573.53
2022-11-15T09:35:42.523Z,96571.88
2022-11-15T09:36:44.447Z,96566.66
2022-11-15T09:37:47.024Z,96570.44
2022-11-15T09:38:50.606Z,96565.03
2022-11-15T09:39:52.594Z,96562.53
2022-11-15T09:41:00.176Z,96560.91
2022-11-15T09:42:12.100Z,96559.25
2022-11-15T09:43:25.873Z,96555.56
2022-11-15T09:44:42.493Z,96552.28
2022-11-15T09:46:04.742Z,96551.41
2022-11-15T09:47:25.199Z,96544.91
2022-11-15T09:48:46.077Z,96554.50
2022-11-15T09:49:56.608Z,96545.63
2022-11-15T09:51:02.561Z,96535.94
2022-11-15T09:52:04.715Z,96538.31
2022-11-15T09:53:10.873Z,96534.84
2022-11-15T09:56:10.847Z,96540.06
2022-11-15T09:57:15.975Z,96533.16
2022-11-15T09:58:23.270Z,96535.88
2022-11-15T09:59:48.174Z,96535.34
2022-11-15T10:00:53.990Z,96532.84
2022-11-15T10:01:56.153Z,96532.84
2022-11-15T10:02:58.060Z,96527.19
2022-11-15T10:04:00.731Z,96520.63
2022-11-15T10:05:02.832Z,96519.75
2022-11-15T10:06:06.450Z,96515.88
2022-11-15T10:07:22.829Z,96507.13
2022-11-15T10:08:43.685Z,96509.06
2022-11-15T10:09:48.958Z,96504.66
2022-11-15T10:11:15.726Z,96502.72
2022-11-15T10:12:17.057Z,96500.00
2022-11-15T10:13:25.168Z,96498.41
2022-11-15T10:14:28.956Z,96490.88
2022-11-15T10:15:31.255Z,96488.16
2022-11-15T10:16:45.681Z,96485.00
2022-11-15T10:18:09.293Z,96477.00
2022-11-15T10:19:17.696Z,96484.31
2022-11-15T10:20:22.277Z,96483.72
2022-11-15T10:21:34.017Z,96474.06
2022-11-15T10:22:52.294Z,96486.69
2022-11-15T10:23:54.793Z,96478.25
2022-11-15T10:25:15.504Z,96467.88
2022-11-15T10:26:18.714Z,96472.88
2022-11-15T10:27:21.277Z,96467.97
2022-11-15T10:28:23.448Z,96466.69
2022-11-15T10:29:27.029Z,96466.81
2022-11-15T10:30:33.713Z,96467.38
2022-11-15T10:31:35.758Z,96455.84
2022-11-15T10:32:37.772Z,96462.13
2022-11-15T10:33:40.836Z,96459.19
2022-11-15T10:34:43.143Z,96461.00
2022-11-15T10:35:45.027Z,96449.72
2022-11-15T10:36:50.280Z,96449.25
2022-11-15T10:37:52.510Z,96434.75
2022-11-15T10:38:55.898Z,96440.06
2022-11-15T10:40:08.636Z,96433.44
2022-11-15T10:41:13.129Z,96434.09
2022-11-15T10:42:28.605Z,96424.97
2022-11-15T10:43:30.647Z,96426.66
2022-11-15T10:44:33.230Z,96418.84
2022-11-15T10:45:35.965Z,96422.84
2022-11-15T10:46:46.751Z,96417.91
2022-11-15T10:47:49.472Z,96415.16
2022-11-15T10:48:51.742Z,96416.00
2022-11-15T10:50:01.667Z,96412.44
2022-11-15T10:51:20.376Z,96410.44
2022-11-15T10:52:23.713Z,96404.59
2022-11-15T10:53:29.183Z,96402.84
2022-11-15T10:54:45.706Z,96407.94
2022-11-15T10:55:48.664Z,96394.06
2022-11-15T10:56:55.009Z,96399.97
2022-11-15T10:58:01.745Z,96398.22
2022-11-15T10:59:03.732Z,96390.38
2022-11-15T11:00:07.961Z,96393.34
2022-11-15T11:01:13.173Z,96390.47
2022-11-15T11:02:34.116Z,96391.03
2022-11-15T11:03:39.356Z,96376.38
2022-11-15T11:04:53.237Z,96383.28
2022-11-15T11:06:15.297Z,96375.22
2022-11-15T11:07:27.964Z,96371.84
2022-11-15T11:08:30.300Z,96373.19
2022-11-15T11:09:39.784Z,96370.63
2022-11-15T11:10:57.186Z,96363.28
2022-11-15T11:12:03.514Z,96361.81
2022-11-15T11:13:15.606Z,96353.97
2022-11-15T11:14:22.452Z,96352.44
2022-11-15T11:15:29.141Z,96349.88
2022-11-15T11:16:39.584Z,96343.63
2022-11-15T11:17:50.632Z,96344.22
2022-11-15T11:19:01.749Z,96337.41
2022-11-15T11:20:22.139Z,96340.69
2022-11-15T11:21:32.944Z,96332.78
2022-11-15T11:22:35.061Z,96339.91
2022-11-15T11:23:45.890Z,96334.66
2022-11-15T11:25:07.282Z,96330.94
2022-11-15T11:26:17.451Z,96336.47
2022-11-15T11:27:32.054Z,96330.16
2022-11-15T11:28:37.163Z,96330.47
2022-11-15T11:29:57.538Z,96329.06
2022-11-15T11:31:18.393Z,96326.88
2022-11-15T11:32:23.355Z,96325.09
2022-11-15T11:33:34.237Z,96319.59
2022-11-15T11:34:55.026Z,96325.41
2022-11-15T11:35:59.855Z,96312.28
2022-11-15T11:37:20.615Z,96314.44
2022-11-15T11:38:22.492Z,96306.56
2022-11-15T11:39:40.613Z,96307.09
2022-11-15T11:40:45.189Z,96310.28
2022-11-15T11:41:50.092Z,96308.72
2022-11-15T11:43:13.576Z,96298.47
2022-11-15T11:44:18.413Z,96306.19
2022-11-15T11:45:29.525Z,96307.81
2022-11-15T11:46:49.119Z,96299.72
2022-11-15T11:48:06.266Z,96301.59
2022-11-15T11:49:13.790Z,96307.91
2022-11-15T11:50:19.646Z,96297.91
2022-11-15T11:51:30.455Z,96295.56
2022-11-15T11:52:32.333Z,96292.91
2022-11-15T11:53:48.151Z,96293.69
2022-11-15T11:55:01.911Z,96288.69
2022-11-15T11:56:05.730Z,96288.19
2022-11-15T11:57:14.022Z,96292.63
2022-11-15T11:58:19.016Z,96277.13
2022-11-15T11:59:23.980Z,96283.72
2022-11-15T12:00:28.943Z,96270.78
2022-11-15T12:01:43.433Z,96275.28
2022-11-15T12:02:49.723Z,96274.75
2022-11-15T12:03:58.463Z,96270.00
2022-11-15T12:05:23.804Z,96264.22
2022-11-15T12:06:38.993Z,96267.91
2022-11-15T12:07:42.225Z,96257.38
2022-11-15T12:09:06.430Z,96256.59
2022-11-15T12:10:24.377Z,96249.75
2022-11-15T12:11:45.634Z,96247.94
2022-11-15T12:12:50.285Z,96246.13
2022-11-15T12:13:57.613Z,96243.75
2022-11-15T12:14:59.425Z,96241.91
2022-11-15T12:16:09.253Z,96240.03
2022-11-15T12:17:13.260Z,96243.22
2022-11-15T12:18:16.997Z,96234.28
2022-11-15T12:19:19.076Z,96234.03
2022-11-15T12:20:23.157Z,96231.69
2022-11-15T12:21:48.058Z,96229.81
2022-11-15T12:22:52.941Z,96234.22
2022-11-15T12:23:59.535Z,96232.63
2022-11-15T12:25:05.575Z,96230.53
2022-11-15T12:26:14.204Z,96223.19
2022-11-15T12:27:24.932Z,96224.00
2022-11-15T12:29:06.437Z,96222.94
2022-11-15T12:30:13.303Z,96224.97
2022-11-15T12:31:37.104Z,96221.84
2022-11-15T12:32:39.981Z,96210.53
2022-11-15T12:33:43.724Z,96215.28
2022-11-15T12:34:47.731Z,96215.81
2022-11-15T12:35:58.927Z,96207.38
2022-11-15T12:37:01.026Z,96209.22
2022-11-15T12:38:03.594Z,96205.81
2022-11-15T12:39:12.172Z,96208.44
2022-11-15T12:40:22.255Z,96209.75
2022-11-15T12:41:25.679Z,96201.31
2022-11-15T12:42:30.223Z,96200.78
2022-11-15T12:43:42.473Z,96200.78
2022-11-15T12:44:44.569Z,96193.91
2022-11-15T12:45:46.900Z,96205.19
2022-11-15T12:46:48.745Z,96206.19